Time;durP1;ratioP1;P1;durP2;ratioP2;P2;SDS_P1;SDS_P2;PMS_P1;PMS_P2;Temp;Humidity;BMP_temperature;BMP_pressure;BME280_temperature;BME280_humidity;BME280_pressure;Samples;Min_cycle;Max_cycle;Signal;HPM_P1;HPM_P2
2022/03/01 00:00:23;;;;;;;213.33;136.03;;;13.40;64.40;;;;;;5274693;28;19919;-29
2022/03/01 00:03:11;;;;;;;211.03;136.50;;;13.40;64.70;;;;;;5261613;28;20568;-29
2022/03/01 00:05:43;;;;;;;203.53;133.97;;;13.40;64.50;;;;;;5290625;27;20039;-30
2022/03/01 00:08:13;;;;;;;201.77;134.50;;;13.40;64.50;;;;;;5294960;27;20035;-33
2022/03/01 00:10:45;;;;;;;201.67;129.23;;;13.40;64.50;;;;;;5258450;28;20496;-33
2022/03/01 00:13:15;;;;;;;197.67;130.17;;;13.40;64.10;;;;;;5292232;27;20050;-31
2022/03/01 00:15:47;;;;;;;190.47;125.20;;;13.40;64.20;;;;;;5292195;27;20043;-34
2022/03/01 00:18:19;;;;;;;198.93;129.20;;;13.40;64.30;;;;;;5290609;27;20110;-28
2022/03/01 00:20:50;;;;;;;207.03;132.50;;;13.40;64.30;;;;;;5288667;27;20074;-32
2022/03/01 00:23:20;;;;;;;203.80;131.33;;;13.40;64.30;;;;;;5275011;28;20440;-29
2022/03/01 00:25:52;;;;;;;207.33;134.60;;;13.40;64.20;;;;;;5294169;28;20446;-29
2022/03/01 00:28:22;;;;;;;211.53;140.10;;;13.40;64.30;;;;;;5295151;28;20047;-27
2022/03/01 00:30:55;;;;;;;213.37;138.07;;;13.40;64.40;;;;;;5291855;28;20051;-29
2022/03/01 00:33:26;;;;;;;209.53;136.03;;;13.40;64.40;;;;;;5293728;28;20047;-29
2022/03/01 00:35:57;;;;;;;203.03;132.30;;;13.40;64.30;;;;;;5290370;28;20058;-32
2022/03/01 00:38:28;;;;;;;185.80;124.73;;;13.40;64.30;;;;;;5291080;28;20408;-32
2022/03/01 00:40:59;;;;;;;201.80;130.67;;;13.40;64.20;;;;;;5297991;28;21551;-28
2022/03/01 00:43:30;;;;;;;198.43;132.07;;;13.40;64.30;;;;;;5287831;28;20075;-29
2022/03/01 00:46:01;;;;;;;185.90;119.70;;;13.40;64.20;;;;;;5275875;28;20071;-33
2022/03/01 00:48:32;;;;;;;192.73;124.30;;;13.40;64.10;;;;;;5287619;28;20369;-29
2022/03/01 00:51:03;;;;;;;185.90;122.67;;;13.40;64.00;;;;;;5292454;28;20048;-29
2022/03/01 00:53:34;;;;;;;195.83;126.07;;;13.40;63.90;;;;;;5288535;28;20485;-29
2022/03/01 00:56:05;;;;;;;196.27;129.57;;;13.40;64.10;;;;;;5289987;28;20424;-31
2022/03/01 00:58:36;;;;;;;200.13;126.57;;;13.40;64.10;;;;;;5299947;28;20047;-30
2022/03/01 01:01:07;;;;;;;207.53;130.93;;;13.40;64.60;;;;;;5248428;28;20075;-27
2022/03/01 01:03:38;;;;;;;200.27;130.77;;;13.40;65.60;;;;;;5297899;28;20067;-33
2022/03/01 01:06:09;;;;;;;228.13;142.17;;;13.40;65.70;;;;;;5304235;28;20409;-32
2022/03/01 01:08:40;;;;;;;240.00;152.90;;;13.40;65.50;;;;;;5298663;28;20036;-31
2022/03/01 01:11:11;;;;;;;223.53;144.00;;;13.40;65.40;;;;;;5252202;28;20095;-32
2022/03/01 01:13:42;;;;;;;204.80;130.07;;;13.40;65.00;;;;;;5293412;28;20039;-28
2022/03/01 01:16:16;;;;;;;200.17;129.23;;;13.40;65.20;;;;;;5266045;28;20092;-36
2022/03/01 01:18:47;;;;;;;198.33;125.37;;;13.40;65.10;;;;;;5298975;28;20069;-28
2022/03/01 01:21:18;;;;;;;180.97;118.37;;;13.40;65.20;;;;;;5300082;28;20435;-36
2022/03/01 01:23:49;;;;;;;175.03;109.23;;;13.30;65.00;;;;;;5302633;28;20048;-32
2022/03/01 01:26:20;;;;;;;175.00;110.67;;;13.40;65.10;;;;;;5289153;28;20035;-36
2022/03/01 01:28:51;;;;;;;177.73;111.43;;;13.30;65.00;;;;;;5282685;28;20392;-31
2022/03/01 01:31:22;;;;;;;171.80;112.77;;;13.30;64.90;;;;;;5279342;28;20392;-31
2022/03/01 01:33:53;;;;;;;166.90;109.67;;;13.30;64.90;;;;;;5276914;28;20050;-31
2022/03/01 01:36:25;;;;;;;170.47;107.90;;;13.40;65.00;;;;;;5281978;28;20082;-41
2022/03/01 01:38:56;;;;;;;164.63;106.10;;;13.40;65.00;;;;;;5282252;28;20044;-28
2022/03/01 01:41:27;;;;;;;161.93;107.33;;;13.30;64.80;;;;;;5274067;28;20093;-35
2022/03/01 01:43:59;;;;;;;169.47;107.80;;;13.30;64.80;;;;;;5274129;28;20047;-32
2022/03/01 01:46:30;;;;;;;173.53;109.37;;;13.30;64.70;;;;;;5246237;28;20401;-30
2022/03/01 01:49:01;;;;;;;160.63;106.50;;;13.30;65.20;;;;;;5272244;28;20051;-31
2022/03/01 01:51:32;;;;;;;167.43;106.30;;;13.30;64.70;;;;;;5273557;28;20086;-29
2022/03/01 01:54:04;;;;;;;163.90;104.23;;;13.30;64.80;;;;;;5270036;28;20048;-30
2022/03/01 01:56:35;;;;;;;162.97;106.50;;;13.30;64.80;;;;;;5257434;28;20047;-31
2022/03/01 01:59:06;;;;;;;165.37;102.60;;;13.20;64.70;;;;;;5274204;28;20040;-28
2022/03/01 02:01:37;;;;;;;164.60;104.20;;;13.20;64.50;;;;;;5273680;28;20048;-28
2022/03/01 02:04:07;;;;;;;171.97;109.30;;;13.20;64.50;;;;;;5273432;28;20054;-29
2022/03/01 02:06:52;;;;;;;167.53;107.93;;;13.20;64.60;;;;;;5274759;28;20554;-30
2022/03/01 02:09:23;;;;;;;170.77;114.37;;;13.20;64.60;;;;;;5226444;28;20519;-29
2022/03/01 02:11:54;;;;;;;166.23;110.50;;;13.20;64.40;;;;;;5273267;28;20131;-31
2022/03/01 02:14:25;;;;;;;178.07;113.97;;;13.20;64.40;;;;;;5270036;28;20085;-29
2022/03/01 02:16:58;;;;;;;160.93;106.70;;;13.20;64.30;;;;;;5272467;28;20047;-29
2022/03/01 02:19:29;;;;;;;174.53;108.57;;;13.20;64.30;;;;;;5244566;28;20473;-34
2022/03/01 02:22:00;;;;;;;169.17;106.83;;;13.20;64.20;;;;;;5273573;28;20046;-28
2022/03/01 02:24:31;;;;;;;160.10;103.60;;;13.20;64.10;;;;;;5258741;28;20036;-33
2022/03/01 02:27:03;;;;;;;151.93;100.47;;;13.20;64.20;;;;;;5270767;28;20117;-36
2022/03/01 02:29:34;;;;;;;144.17;97.23;;;13.10;64.00;;;;;;5257123;28;20408;-31
2022/03/01 02:32:07;;;;;;;153.80;100.30;;;13.20;64.20;;;;;;5281153;27;20047;-32
2022/03/01 02:34:38;;;;;;;160.38;105.97;;;13.20;64.20;;;;;;5274974;28;20066;-28
2022/03/01 02:37:09;;;;;;;155.47;106.43;;;13.20;64.00;;;;;;5292858;27;20093;-32
2022/03/01 02:39:40;;;;;;;165.83;105.83;;;13.20;63.90;;;;;;5299966;27;20036;-31
2022/03/01 02:42:11;;;;;;;168.10;107.93;;;13.10;64.10;;;;;;5291542;27;20035;-34
2022/03/01 02:44:42;;;;;;;157.97;105.43;;;13.10;64.10;;;;;;5291834;27;20040;-29
2022/03/01 02:47:14;;;;;;;166.70;105.30;;;13.20;64.00;;;;;;5272918;27;20039;-32
2022/03/01 02:49:45;;;;;;;158.30;100.47;;;13.10;64.10;;;;;;5291193;27;20070;-28
2022/03/01 02:52:16;;;;;;;161.90;103.27;;;13.10;64.10;;;;;;5279744;28;20404;-29
2022/03/01 02:54:47;;;;;;;157.93;100.53;;;13.10;64.00;;;;;;5293068;27;20051;-28
2022/03/01 02:57:18;;;;;;;147.87;96.47;;;13.10;63.90;;;;;;5298284;27;20043;-33
2022/03/01 02:59:50;;;;;;;145.53;97.90;;;13.10;63.90;;;;;;5295380;27;20055;-30
2022/03/01 03:02:21;;;;;;;147.63;92.80;;;13.10;63.80;;;;;;5302295;27;20062;-37
2022/03/01 03:04:52;;;;;;;154.70;102.07;;;13.10;63.60;;;;;;5297282;27;20039;-37
2022/03/01 03:07:23;;;;;;;153.00;101.13;;;13.10;63.70;;;;;;5275056;27;20088;-32
2022/03/01 03:09:54;;;;;;;154.00;98.87;;;13.10;63.80;;;;;;5278020;28;20146;-29
2022/03/01 03:12:26;;;;;;;149.97;100.10;;;13.10;63.70;;;;;;5299643;27;20065;-30
2022/03/01 03:14:57;;;;;;;146.07;96.77;;;13.10;63.70;;;;;;5299628;27;20125;-29
2022/03/01 03:17:29;;;;;;;153.87;98.10;;;13.10;63.90;;;;;;5296011;27;20118;-33
2022/03/01 03:20:00;;;;;;;157.27;104.27;;;13.10;64.00;;;;;;5303694;27;20176;-31
2022/03/01 03:22:31;;;;;;;219.33;139.57;;;13.10;64.10;;;;;;5270920;27;20038;-37
2022/03/01 03:25:03;;;;;;;158.97;102.00;;;13.10;64.10;;;;;;5276110;28;20473;-31
2022/03/01 03:27:34;;;;;;;162.57;104.83;;;13.10;64.00;;;;;;5276819;27;20061;-33
2022/03/01 03:30:06;;;;;;;164.57;109.17;;;13.10;63.90;;;;;;5293483;27;20123;-29
2022/03/01 03:32:37;;;;;;;148.80;99.27;;;13.10;64.20;;;;;;5257999;28;20502;-30
2022/03/01 03:35:08;;;;;;;157.33;103.60;;;13.10;66.30;;;;;;5278059;28;20043;-29
2022/03/01 03:37:39;;;;;;;142.57;99.27;;;13.30;68.60;;;;;;5273337;28;20047;-31
2022/03/01 03:40:10;;;;;;;139.87;93.50;;;13.40;68.20;;;;;;5251560;28;20036;-33
2022/03/01 03:42:45;;;;;;;139.87;95.40;;;13.60;68.90;;;;;;5279655;28;20036;-31
2022/03/01 03:45:16;;;;;;;139.63;92.13;;;13.70;68.60;;;;;;5275710;28;20101;-30
2022/03/01 03:47:47;;;;;;;141.80;94.47;;;13.80;66.90;;;;;;5273090;28;20605;-31
2022/03/01 03:50:18;;;;;;;144.53;93.53;;;13.90;68.20;;;;;;5271613;28;20052;-28
2022/03/01 03:52:49;;;;;;;145.47;96.40;;;14.00;69.90;;;;;;5271662;28;20072;-31
2022/03/01 03:55:20;;;;;;;143.23;95.20;;;14.10;71.90;;;;;;5267069;28;20048;-35
2022/03/01 03:57:51;;;;;;;145.40;96.43;;;14.20;70.70;;;;;;5270113;28;20066;-33
2022/03/01 04:00:22;;;;;;;141.77;94.27;;;14.30;69.90;;;;;;5271520;28;20044;-31
2022/03/01 04:02:53;;;;;;;141.03;93.93;;;14.40;66.20;;;;;;5269754;28;20039;-32
2022/03/01 04:05:24;;;;;;;141.63;96.60;;;14.40;65.10;;;;;;5279620;28;20097;-31
2022/03/01 04:07:55;;;;;;;151.50;101.63;;;14.40;64.40;;;;;;5273596;28;20046;-30
2022/03/01 04:10:26;;;;;;;142.03;94.40;;;14.40;64.00;;;;;;5274109;28;20035;-35
2022/03/01 04:12:57;;;;;;;139.57;93.20;;;14.40;63.60;;;;;;5271556;28;20492;-33
2022/03/01 04:15:28;;;;;;;139.43;95.10;;;14.40;63.30;;;;;;5271216;28;20036;-29
2022/03/01 04:17:59;;;;;;;143.53;95.97;;;14.30;63.10;;;;;;5267170;28;20048;-33
2022/03/01 04:20:31;;;;;;;143.30;97.60;;;14.30;62.80;;;;;;5252099;28;20044;-35
2022/03/01 04:23:02;;;;;;;147.10;97.97;;;14.30;62.70;;;;;;5276343;28;20120;-30
2022/03/01 04:25:33;;;;;;;150.33;100.33;;;14.30;62.50;;;;;;5272466;28;20126;-29
2022/03/01 04:28:04;;;;;;;152.77;103.07;;;14.20;62.30;;;;;;5274689;28;20070;-28
2022/03/01 04:30:35;;;;;;;151.07;103.20;;;14.20;62.20;;;;;;5275442;28;20066;-37
2022/03/01 04:33:06;;;;;;;149.57;103.70;;;14.20;62.00;;;;;;5273023;28;20046;-29
2022/03/01 04:35:37;;;;;;;149.50;100.40;;;14.10;62.00;;;;;;5287860;28;20413;-28
2022/03/01 04:38:08;;;;;;;145.37;96.40;;;14.10;61.90;;;;;;5290284;28;20040;-28
2022/03/01 04:40:39;;;;;;;142.30;97.10;;;14.00;61.80;;;;;;5292106;28;20052;-31
2022/03/01 04:43:10;;;;;;;136.07;93.77;;;14.00;62.00;;;;;;5289809;28;20397;-29
2022/03/01 04:45:41;;;;;;;145.57;99.77;;;14.00;62.00;;;;;;5294397;28;20035;-28
2022/03/01 04:48:12;;;;;;;144.17;97.67;;;14.00;62.10;;;;;;5291065;28;20114;-32
2022/03/01 04:50:43;;;;;;;143.70;95.93;;;13.90;62.10;;;;;;5261985;28;20114;-31
2022/03/01 04:53:14;;;;;;;143.73;95.73;;;13.90;62.30;;;;;;5297484;28;20499;-29
2022/03/01 04:55:45;;;;;;;143.57;96.50;;;13.90;62.10;;;;;;5270057;28;20126;-29
2022/03/01 04:58:16;;;;;;;141.17;97.97;;;13.90;62.00;;;;;;5295526;28;20489;-32
2022/03/01 05:00:47;;;;;;;156.60;108.30;;;13.80;61.40;;;;;;5290605;28;20040;-33
2022/03/01 05:03:19;;;;;;;158.90;106.67;;;13.80;61.40;;;;;;5292388;28;20074;-29
2022/03/01 05:05:49;;;;;;;238.07;161.47;;;13.80;61.30;;;;;;5291752;28;20040;-29
2022/03/01 05:08:21;;;;;;;209.03;143.50;;;13.70;61.10;;;;;;5275737;27;20401;-29
2022/03/01 05:10:51;;;;;;;200.03;136.13;;;13.70;61.20;;;;;;5297036;27;20044;-35
2022/03/01 05:13:23;;;;;;;182.47;128.23;;;13.70;61.30;;;;;;5296205;27;20040;-29
2022/03/01 05:15:54;;;;;;;168.00;111.27;;;13.70;61.30;;;;;;5295814;27;20396;-31
2022/03/01 05:18:25;;;;;;;146.17;102.50;;;13.70;61.20;;;;;;5275627;27;20039;-28
2022/03/01 05:20:56;;;;;;;145.33;101.40;;;13.70;61.20;;;;;;5292627;27;20061;-35
2022/03/01 05:23:27;;;;;;;246.57;152.07;;;13.70;61.00;;;;;;5296887;27;20122;-29
2022/03/01 05:25:59;;;;;;;491.30;295.20;;;13.60;61.00;;;;;;5296128;27;20395;-29
2022/03/01 05:28:30;;;;;;;483.50;283.00;;;13.70;61.20;;;;;;5264377;28;20484;-28
2022/03/01 05:31:01;;;;;;;406.83;233.20;;;13.70;61.30;;;;;;5277130;27;20094;-28
2022/03/01 05:33:32;;;;;;;363.93;216.93;;;13.70;61.00;;;;;;5297045;27;20125;-34
2022/03/01 05:36:03;;;;;;;264.07;156.80;;;13.70;61.00;;;;;;5248446;28;20205;-31
2022/03/01 05:38:34;;;;;;;188.90;120.23;;;13.70;61.20;;;;;;5293035;27;20040;-28
2022/03/01 05:41:05;;;;;;;224.63;140.23;;;13.70;61.00;;;;;;5293721;27;20046;-34
2022/03/01 05:43:37;;;;;;;254.77;156.30;;;13.70;61.20;;;;;;5291295;27;20040;-30
2022/03/01 05:46:07;;;;;;;217.73;137.30;;;13.70;61.10;;;;;;5297409;27;20055;-32
2022/03/01 05:48:39;;;;;;;203.40;129.27;;;13.60;61.00;;;;;;5294297;27;20092;-36
2022/03/01 05:51:10;;;;;;;213.03;129.00;;;13.60;61.20;;;;;;5292490;27;20047;-27
2022/03/01 05:53:41;;;;;;;305.40;163.33;;;13.60;61.30;;;;;;5275849;27;20058;-29
2022/03/01 05:56:12;;;;;;;208.80;122.53;;;13.60;61.40;;;;;;5259987;27;20048;-35
2022/03/01 05:58:43;;;;;;;169.47;109.60;;;13.60;61.40;;;;;;5298775;27;20127;-33
2022/03/01 06:01:14;;;;;;;154.93;100.80;;;13.50;61.10;;;;;;5300072;27;20545;-29
2022/03/01 06:03:45;;;;;;;137.70;94.23;;;13.50;61.20;;;;;;5297192;27;20492;-35
2022/03/01 06:06:16;;;;;;;136.90;90.27;;;13.50;61.20;;;;;;5298236;27;20071;-30
2022/03/01 06:08:47;;;;;;;143.20;94.13;;;13.50;61.50;;;;;;5301651;27;20043;-30
2022/03/01 06:11:18;;;;;;;148.83;95.47;;;13.50;61.60;;;;;;5253540;28;20049;-30
2022/03/01 06:13:49;;;;;;;164.60;103.73;;;13.50;61.80;;;;;;5244355;28;20513;-33
2022/03/01 06:16:20;;;;;;;159.77;101.33;;;13.50;62.10;;;;;;5254694;28;20048;-29
2022/03/01 06:18:51;;;;;;;176.23;115.73;;;13.50;62.40;;;;;;5256816;28;20075;-30
2022/03/01 06:21:22;;;;;;;143.20;100.27;;;13.40;62.50;;;;;;5254693;28;20500;-33
2022/03/01 06:23:53;;;;;;;152.60;100.90;;;13.40;62.70;;;;;;5257663;28;20101;-28
2022/03/01 06:26:25;;;;;;;148.83;100.70;;;13.50;69.70;;;;;;5249833;28;20048;-36
2022/03/01 06:28:56;;;;;;;151.67;100.70;;;13.60;72.90;;;;;;5255115;28;20456;-28
2022/03/01 06:31:27;;;;;;;148.17;98.63;;;13.70;73.50;;;;;;5235721;28;20040;-35
2022/03/01 06:33:58;;;;;;;163.20;105.97;;;13.90;70.60;;;;;;5255170;28;20083;-31
2022/03/01 06:36:29;;;;;;;165.07;105.07;;;13.90;69.00;;;;;;5256526;28;20067;-35
2022/03/01 06:39:00;;;;;;;160.07;106.53;;;14.00;70.60;;;;;;5237330;28;20059;-29
2022/03/01 06:41:31;;;;;;;157.53;105.97;;;14.10;71.00;;;;;;5245797;28;20432;-31
2022/03/01 06:44:02;;;;;;;158.60;106.63;;;14.10;66.20;;;;;;5297390;27;20771;-30
2022/03/01 06:46:33;;;;;;;164.83;114.57;;;14.10;64.90;;;;;;5282039;27;20130;-41
2022/03/01 06:49:05;;;;;;;170.23;113.63;;;14.20;64.70;;;;;;5297564;27;20047;-27
2022/03/01 06:51:36;;;;;;;156.97;103.63;;;14.20;64.20;;;;;;5294481;27;20047;-31
2022/03/01 06:54:07;;;;;;;147.50;103.70;;;14.20;64.10;;;;;;5272381;28;20408;-36
2022/03/01 06:56:38;;;;;;;122.27;81.43;;;14.20;64.20;;;;;;5291380;27;20044;-28
2022/03/01 06:59:09;;;;;;;129.80;92.50;;;14.10;64.20;;;;;;5271313;28;20040;-30
2022/03/01 07:01:40;;;;;;;126.93;84.80;;;14.10;64.10;;;;;;5292061;27;20039;-38
2022/03/01 07:04:11;;;;;;;114.33;81.57;;;14.10;64.20;;;;;;5259844;28;20048;-31
2022/03/01 07:06:43;;;;;;;93.10;65.13;;;14.10;64.40;;;;;;5287130;27;20087;-32
2022/03/01 07:09:14;;;;;;;93.13;62.37;;;14.10;64.70;;;;;;5296712;27;20040;-29
2022/03/01 07:11:45;;;;;;;95.70;64.73;;;14.10;64.80;;;;;;5273933;28;20477;-28
2022/03/01 07:14:16;;;;;;;114.23;74.63;;;14.10;65.20;;;;;;5296268;27;20039;-29
2022/03/01 07:16:47;;;;;;;116.03;79.93;;;14.10;65.30;;;;;;5290835;27;20043;-36
2022/03/01 07:19:18;;;;;;;119.87;77.93;;;14.00;65.60;;;;;;5292195;27;20035;-35
2022/03/01 07:21:49;;;;;;;117.23;77.10;;;14.00;66.50;;;;;;5275930;27;20046;-31
2022/03/01 07:24:21;;;;;;;116.43;76.83;;;14.10;75.40;;;;;;5291467;27;20043;-30
2022/03/01 07:26:51;;;;;;;134.73;86.33;;;14.10;74.80;;;;;;5296300;27;20088;-32
2022/03/01 07:29:23;;;;;;;126.80;83.27;;;14.20;75.20;;;;;;5312415;27;20050;-32
2022/03/01 07:31:53;;;;;;;125.40;83.67;;;14.20;72.80;;;;;;5312163;27;20052;-29
2022/03/01 07:34:25;;;;;;;123.40;79.37;;;14.20;69.10;;;;;;5312764;27;20396;-34
2022/03/01 07:36:57;;;;;;;129.60;81.77;;;14.10;67.70;;;;;;5312687;27;20043;-34
2022/03/01 07:39:28;;;;;;;137.77;90.97;;;14.10;67.60;;;;;;5294628;27;20140;-31
2022/03/01 07:41:59;;;;;;;159.23;112.23;;;14.10;68.30;;;;;;5294314;27;20094;-34
2022/03/01 07:44:30;;;;;;;222.57;153.40;;;13.90;67.00;;;;;;5312674;27;20082;-32
2022/03/01 07:47:01;;;;;;;195.97;137.80;;;12.20;69.40;;;;;;5294617;27;20484;-30
2022/03/01 07:49:32;;;;;;;215.37;147.73;;;11.00;71.70;;;;;;5312224;27;20430;-32
2022/03/01 07:52:03;;;;;;;;;;;10.30;73.50;;;;;;5312900;27;20043;-33
2022/03/01 07:54:34;;;;;;;183.77;120.27;;;10.00;74.10;;;;;;5312242;27;19926;-31
2022/03/01 07:57:08;;;;;;;136.90;92.07;;;10.50;74.10;;;;;;5312234;27;20388;-34
2022/03/01 07:59:39;;;;;;;101.00;67.10;;;11.00;73.40;;;;;;5312317;27;20047;-33
2022/03/01 08:02:10;;;;;;;90.57;63.77;;;11.40;73.00;;;;;;5294090;27;20039;-32
2022/03/01 08:04:42;;;;;;;91.83;64.23;;;11.90;73.50;;;;;;5312632;27;20077;-31
2022/03/01 08:07:13;;;;;;;85.43;56.13;;;12.30;75.10;;;;;;5293438;27;20047;-33
2022/03/01 08:09:45;;;;;;;77.67;52.67;;;12.60;74.90;;;;;;5312197;27;20103;-36
2022/03/01 08:12:16;;;;;;;73.50;49.95;;;12.90;71.70;;;;;;5311999;27;20114;-29
2022/03/01 08:14:47;;;;;;;75.47;51.07;;;13.10;71.10;;;;;;5293761;27;20050;-35
2022/03/01 08:17:19;;;;;;;77.83;51.17;;;13.30;70.80;;;;;;5311929;27;20035;-35
2022/03/01 08:19:51;;;;;;;59.60;42.33;;;13.50;70.60;;;;;;5312099;27;20043;-27
2022/03/01 08:22:22;;;;;;;59.53;39.70;;;13.50;70.50;;;;;;5311879;27;20051;-29
2022/03/01 08:24:53;;;;;;;55.43;38.93;;;13.60;70.40;;;;;;5312073;27;20043;-32
2022/03/01 08:27:24;;;;;;;55.80;38.53;;;13.70;70.40;;;;;;5311692;27;20134;-34
2022/03/01 08:29:55;;;;;;;54.27;38.97;;;13.70;70.40;;;;;;5311686;27;20053;-31
2022/03/01 08:32:26;;;;;;;50.67;35.37;;;13.80;70.40;;;;;;5293075;28;20047;-32
2022/03/01 08:34:58;;;;;;;47.13;32.40;;;13.80;70.30;;;;;;5311639;28;20043;-29
2022/03/01 08:37:29;;;;;;;50.53;35.17;;;13.80;70.20;;;;;;5267088;28;20113;-28
2022/03/01 08:40:00;;;;;;;49.20;32.83;;;13.90;70.60;;;;;;5267268;28;20083;-32
2022/03/01 08:42:31;;;;;;;51.73;35.87;;;13.90;70.20;;;;;;5269062;28;20056;-29
2022/03/01 08:45:04;;;;;;;51.47;35.13;;;13.90;70.20;;;;;;5271477;28;20127;-31
2022/03/01 08:47:34;;;;;;;49.17;33.20;;;13.90;69.90;;;;;;5254600;28;20052;-34
2022/03/01 08:50:06;;;;;;;46.87;33.17;;;13.90;69.90;;;;;;5229625;28;20060;-29
2022/03/01 08:52:39;;;;;;;46.73;31.30;;;13.90;73.10;;;;;;5229485;28;20083;-31
2022/03/01 08:55:10;;;;;;;41.57;29.87;;;14.00;70.20;;;;;;5229552;28;20057;-32
2022/03/01 08:57:41;;;;;;;42.17;28.37;;;14.00;69.90;;;;;;5228270;28;20057;-32
2022/03/01 09:00:18;;;;;;;38.27;27.17;;;13.90;69.50;;;;;;5225491;28;20059;-32
2022/03/01 09:02:50;;;;;;;37.77;24.47;;;13.90;69.30;;;;;;5196536;28;20107;-30
2022/03/01 09:05:21;;;;;;;39.10;24.23;;;13.90;69.30;;;;;;5228985;28;20061;-29
2022/03/01 09:07:53;;;;;;;33.13;23.77;;;13.90;69.50;;;;;;5217885;28;20102;-30
2022/03/01 09:10:24;;;;;;;39.23;25.17;;;13.90;69.30;;;;;;5249697;28;20063;-29
2022/03/01 09:13:02;;;;;;;40.60;27.77;;;13.90;69.20;;;;;;5233148;28;20597;-29
2022/03/01 09:15:33;;;;;;;35.53;24.77;;;13.90;69.50;;;;;;5215879;28;20099;-31
2022/03/01 09:18:06;;;;;;;29.57;20.70;;;13.90;69.30;;;;;;5249170;28;20072;-33
2022/03/01 09:20:38;;;;;;;31.25;22.23;;;13.90;68.80;;;;;;5230919;28;20051;-36
2022/03/01 09:23:12;;;;;;;29.40;21.93;;;13.90;68.40;;;;;;5293694;28;20542;-34
2022/03/01 09:25:43;;;;;;;30.13;20.83;;;13.90;68.60;;;;;;5275435;28;20051;-29
2022/03/01 09:28:14;;;;;;;23.20;16.63;;;13.90;68.80;;;;;;5241222;28;20513;-29
2022/03/01 09:30:47;;;;;;;22.57;14.57;;;13.90;68.60;;;;;;5275530;28;20055;-28
2022/03/01 09:33:18;;;;;;;22.10;15.53;;;13.90;67.90;;;;;;5293703;28;20051;-31
2022/03/01 09:35:49;;;;;;;30.00;20.97;;;13.90;67.90;;;;;;5275736;28;20043;-32
2022/03/01 09:38:20;;;;;;;25.67;19.17;;;13.90;68.00;;;;;;5293557;28;20048;-32
2022/03/01 09:40:51;;;;;;;30.77;20.03;;;13.90;67.80;;;;;;5293285;28;20124;-28
2022/03/01 09:43:25;;;;;;;26.07;19.50;;;13.80;67.50;;;;;;5275454;28;20097;-31
2022/03/01 09:45:56;;;;;;;25.77;18.53;;;13.80;67.40;;;;;;5275737;28;20035;-30
2022/03/01 09:48:28;;;;;;;24.60;17.70;;;13.90;67.30;;;;;;5293222;28;20054;-34
2022/03/01 09:51:00;;;;;;;30.00;19.70;;;13.80;66.90;;;;;;5275140;28;20050;-29
2022/03/01 09:53:32;;;;;;;23.87;16.93;;;13.80;66.60;;;;;;5274275;28;20449;-29
2022/03/01 09:56:04;;;;;;;19.53;14.17;;;13.80;66.40;;;;;;5292944;28;20497;-40
2022/03/01 09:58:36;;;;;;;15.43;10.57;;;13.80;66.00;;;;;;5293261;28;20389;-30
2022/03/01 10:01:07;;;;;;;15.63;10.47;;;13.80;65.90;;;;;;5293104;28;20047;-37
2022/03/01 10:03:39;;;;;;;15.13;9.70;;;13.80;65.40;;;;;;5292936;28;20126;-31
2022/03/01 10:06:12;;;;;;;15.73;10.23;;;13.80;65.10;;;;;;5292934;28;20048;-31
2022/03/01 10:08:49;;;;;;;13.70;9.97;;;13.80;64.90;;;;;;5292507;28;20047;-30
2022/03/01 10:11:23;;;;;;;14.93;10.40;;;13.80;64.90;;;;;;5275556;28;20059;-29
2022/03/01 10:13:58;;;;;;;12.53;9.67;;;13.80;65.40;;;;;;5293058;28;20456;-29
2022/03/01 10:16:41;;;;;;;16.03;10.53;;;13.80;64.70;;;;;;5274352;28;20028;-29
2022/03/01 10:19:17;;;;;;;12.80;9.30;;;13.80;64.70;;;;;;5292732;28;20484;-31
2022/03/01 10:22:02;;;;;;;14.67;8.80;;;13.80;65.00;;;;;;5293024;28;20040;-35
2022/03/01 10:24:33;;;;;;;11.47;7.50;;;13.80;65.30;;;;;;5274145;28;20043;-40
2022/03/01 10:27:05;;;;;;;12.70;8.47;;;13.80;65.10;;;;;;5274161;28;20051;-36
2022/03/01 10:29:41;;;;;;;;;;;13.80;64.90;;;;;;5274633;28;20489;-32
2022/03/01 10:32:12;;;;;;;14.27;8.43;;;13.80;64.70;;;;;;5273980;28;19943;-34
2022/03/01 10:35:21;;;;;;;17.73;10.60;;;13.80;64.40;;;;;;5292521;28;20440;-33
2022/03/01 10:37:52;;;;;;;10.00;7.83;;;13.80;64.30;;;;;;5227426;28;20097;-29
2022/03/01 10:40:24;;;;;;;10.90;7.17;;;13.80;64.30;;;;;;5227185;28;20064;-27
2022/03/01 10:42:59;;;;;;;10.25;6.72;;;13.80;64.00;;;;;;5227465;28;20132;-31
2022/03/01 10:45:35;;;;;;;8.37;6.17;;;13.80;64.00;;;;;;5226879;28;20068;-31
2022/03/01 10:48:09;;;;;;;9.83;7.10;;;13.80;66.50;;;;;;5226922;28;20106;-39
2022/03/01 10:50:40;;;;;;;11.23;6.03;;;13.80;65.70;;;;;;5227130;28;20525;-30
2022/03/01 10:53:11;;;;;;;14.83;9.17;;;13.90;68.50;;;;;;5226776;28;20080;-34
2022/03/01 10:55:43;;;;;;;7.20;5.30;;;13.90;65.20;;;;;;5227068;28;20079;-31
2022/03/01 10:58:14;;;;;;;8.60;5.47;;;13.80;64.80;;;;;;5226627;28;20168;-28
2022/03/01 11:00:49;;;;;;;8.27;5.70;;;13.80;64.30;;;;;;5210283;28;20049;-35
2022/03/01 11:03:23;;;;;;;8.37;5.93;;;13.80;64.10;;;;;;5210524;28;20187;-32
2022/03/01 11:05:54;;;;;;;9.67;6.80;;;13.80;63.90;;;;;;5225630;28;20469;-29
2022/03/01 11:08:32;;;;;;;9.80;6.80;;;13.80;63.70;;;;;;5226795;28;20537;-34
2022/03/01 11:11:06;;;;;;;13.67;8.33;;;13.80;65.10;;;;;;5225353;28;20052;-29
2022/03/01 11:13:44;;;;;;;11.57;8.15;;;13.80;64.40;;;;;;5273616;28;20040;-31
2022/03/01 11:16:34;;;;;;;12.00;8.47;;;13.80;65.70;;;;;;5291383;28;20040;-28
2022/03/01 11:19:23;;;;;;;10.87;7.53;;;13.80;68.00;;;;;;5273640;28;20051;-30
2022/03/01 11:21:54;;;;;;;9.43;7.60;;;13.80;69.20;;;;;;5291357;28;20450;-29
2022/03/01 11:24:28;;;;;;;12.33;8.27;;;13.90;68.50;;;;;;5273075;28;20059;-30
2022/03/01 11:27:06;;;;;;;10.87;7.30;;;13.90;64.40;;;;;;5272589;28;20063;-33
2022/03/01 11:29:41;;;;;;;11.67;7.60;;;13.90;63.70;;;;;;5291243;28;20074;-30
2022/03/01 11:32:15;;;;;;;9.47;6.57;;;13.80;63.60;;;;;;5291025;28;20051;-31
2022/03/01 11:34:47;;;;;;;11.33;7.80;;;13.80;65.50;;;;;;5272805;28;20055;-31
2022/03/01 11:37:19;;;;;;;11.43;8.80;;;13.80;64.00;;;;;;5290806;28;20047;-28
2022/03/01 11:40:00;;;;;;;12.93;9.50;;;13.90;63.70;;;;;;5290642;28;20058;-36
2022/03/01 11:42:32;;;;;;;13.43;9.53;;;13.80;63.50;;;;;;5290303;28;20054;-33
2022/03/01 11:45:09;;;;;;;11.33;8.07;;;13.80;69.60;;;;;;5293369;27;20051;-34
2022/03/01 11:47:41;;;;;;;13.53;10.03;;;13.90;64.50;;;;;;5270609;28;20047;-28
2022/03/01 11:50:19;;;;;;;11.00;8.93;;;13.10;61.10;;;;;;5270408;28;20153;-32
2022/03/01 11:53:12;;;;;;;17.43;11.47;;;11.90;62.50;;;;;;5270776;28;20051;-33
2022/03/01 11:55:53;;;;;;;15.20;10.15;;;11.30;63.60;;;;;;5269520;27;20077;-33
2022/03/01 11:58:25;;;;;;;11.27;8.00;;;10.90;65.50;;;;;;5253413;28;20112;-29
2022/03/01 12:00:56;;;;;;;12.17;8.63;;;10.70;64.00;;;;;;5261447;27;20047;-34
2022/03/01 12:03:27;;;;;;;11.97;8.83;;;10.60;64.80;;;;;;5276751;28;20059;-29
2022/03/01 12:05:59;;;;;;;12.50;8.80;;;10.50;66.10;;;;;;5260703;27;20553;-32
2022/03/01 12:08:30;;;;;;;13.40;9.37;;;10.40;65.40;;;;;;5277135;28;20047;-29
2022/03/01 12:11:04;;;;;;;13.80;9.30;;;10.40;66.90;;;;;;5288076;28;20768;-29
2022/03/01 12:13:41;;;;;;;12.40;8.63;;;10.40;67.00;;;;;;5288656;28;20040;-30
2022/03/01 12:16:33;;;;;;;12.97;8.33;;;10.40;67.50;;;;;;5288149;28;20070;-31
2022/03/01 12:19:23;;;;;;;10.53;8.33;;;10.40;67.20;;;;;;5270003;28;20043;-28
2022/03/01 12:21:55;;;;;;;11.70;8.90;;;10.30;67.00;;;;;;5270383;28;20074;-30
2022/03/01 12:24:27;;;;;;;12.27;9.13;;;10.30;68.00;;;;;;5270154;28;20431;-29
2022/03/01 12:27:01;;;;;;;12.25;8.55;;;10.30;66.50;;;;;;5288250;28;20043;-31
2022/03/01 12:29:36;;;;;;;12.80;8.93;;;10.30;66.20;;;;;;5287948;28;20131;-29
2022/03/01 12:32:10;;;;;;;13.80;10.07;;;10.20;66.60;;;;;;5269995;28;20055;-29
2022/03/01 12:34:43;;;;;;;12.33;8.33;;;10.20;66.60;;;;;;5270110;28;20039;-30
2022/03/01 12:37:14;;;;;;;14.50;11.27;;;10.20;66.30;;;;;;5288199;28;20043;-29
2022/03/01 12:39:45;;;;;;;9.77;7.23;;;10.20;67.40;;;;;;5287932;28;20063;-29
2022/03/01 12:42:17;;;;;;;11.57;7.80;;;10.20;67.40;;;;;;5287782;28;20401;-28
2022/03/01 12:44:47;;;;;;;10.63;7.80;;;10.20;66.20;;;;;;5287950;28;20054;-32